Dorval, Canada
Current Conditions -  °F | °C
As of 7:00 PM on Tuesday 25 Nov 2014 (Local Time) from CYUL Reporting Station
Overcast Overcast  
Wind Chill: 31°   Ceiling: 3300
Heat Index: 41°   Visibility: 15mi
Dew Point: 32°   Wind: 22mph
Humidity: 70%   Direction: 230°SW
Pressure: 29.93"   Gusts: 29mph
Location:  45.45°N, 73.75°W
Report Text: CYUL 260000Z 23019G25KT 15SM BKN033 OVC085 05/M00 A2993 RMK SC7AC1 SLP135
Loading
Personal Weather Stations






























Interactive Weather Map New forecast layout! Learn more

10-Day Weather Forecast

Advertisements
Track Severe Weather on mobile